Time;durP1;ratioP1;P1;durP2;ratioP2;P2;SDS_P1;SDS_P2;PMS_P1;PMS_P2;Temp;Humidity;BMP_temperature;BMP_pressure;BME280_temperature;BME280_humidity;BME280_pressure;Samples;Min_cycle;Max_cycle;Signal;HPM_P1;HPM_P2
2023/04/09 00:01:03;;;;;;;11.63;9.57;;;;;;;11.42;63.36;94802.44;5049762;28;20202;-51
2023/04/09 00:03:30;;;;;;;11.47;9.43;;;;;;;11.42;63.44;94812.66;5049443;28;20206;-54
2023/04/09 00:05:58;;;;;;;9.87;8.73;;;;;;;11.33;63.54;94797.34;5049391;28;20264;-52
2023/04/09 00:08:25;;;;;;;12.77;9.83;;;;;;;11.42;63.34;94814.41;5049977;28;20281;-51
2023/04/09 00:10:52;;;;;;;10.37;9.23;;;;;;;11.42;63.31;94817.78;5049688;28;20217;-52
2023/04/09 00:13:19;;;;;;;10.23;9.13;;;;;;;11.41;63.45;94811.06;5049377;28;20195;-51
2023/04/09 00:15:46;;;;;;;12.37;10.20;;;;;;;11.31;63.58;94805.13;5050019;28;20179;-54
2023/04/09 00:18:13;;;;;;;11.53;9.33;;;;;;;11.43;63.66;94816.84;5049815;28;20199;-52
2023/04/09 00:20:40;;;;;;;11.03;8.80;;;;;;;11.43;63.48;94819.41;5049832;28;20202;-51
2023/04/09 00:23:08;;;;;;;11.23;9.50;;;;;;;11.45;63.38;94814.97;5049199;28;20183;-54
2023/04/09 00:25:35;;;;;;;12.33;9.90;;;;;;;11.47;63.46;94817.38;5049925;28;20215;-51
2023/04/09 00:28:02;;;;;;;13.37;9.80;;;;;;;11.45;63.64;94812.41;5048973;28;20226;-53
2023/04/09 00:30:29;;;;;;;11.30;9.90;;;;;;;11.47;63.51;94818.16;5049475;28;20585;-51
2023/04/09 00:32:56;;;;;;;11.60;10.43;;;;;;;11.50;63.46;94817.09;5049438;28;20194;-51
2023/04/09 00:35:23;;;;;;;11.27;9.83;;;;;;;11.51;63.40;94824.63;5049407;28;20191;-51
2023/04/09 00:37:50;;;;;;;10.50;9.30;;;;;;;11.48;63.61;94817.22;5048983;28;20198;-52
2023/04/09 00:40:18;;;;;;;10.90;9.83;;;;;;;11.53;63.52;94827.06;5049294;28;20195;-50
2023/04/09 00:42:45;;;;;;;10.97;9.83;;;;;;;11.54;63.64;94815.88;5049066;28;20198;-52
2023/04/09 00:45:12;;;;;;;11.53;10.20;;;;;;;11.54;63.71;94821.00;5049121;28;20279;-52
2023/04/09 00:47:39;;;;;;;11.33;10.07;;;;;;;11.55;63.52;94822.59;5049027;28;20195;-53
2023/04/09 00:50:07;;;;;;;11.40;10.20;;;;;;;11.54;63.42;94815.88;5049037;28;20210;-52
2023/04/09 00:52:34;;;;;;;12.47;9.83;;;;;;;11.54;63.62;94819.22;5049476;28;20180;-53
2023/04/09 00:55:02;;;;;;;11.47;9.43;;;;;;;11.42;63.55;94794.75;5049094;28;20191;-52
2023/04/09 00:57:30;;;;;;;11.00;10.00;;;;;;;11.56;63.38;94817.31;5049220;28;20643;-51
2023/04/09 00:59:57;;;;;;;10.37;9.30;;;;;;;11.56;63.61;94819.88;5049073;28;20199;-49
2023/04/09 01:02:24;;;;;;;12.93;9.83;;;;;;;11.56;63.67;94817.31;5049188;28;20191;-53
2023/04/09 01:04:51;;;;;;;11.20;9.97;;;;;;;11.56;63.76;94813.97;5048593;28;20223;-50
2023/04/09 01:07:26;;;;;;;11.67;10.17;;;;;;;11.52;63.57;94810.06;5048898;28;20234;-52
2023/04/09 01:10:00;;;;;;;11.97;10.60;;;;;;;11.56;63.70;94821.66;5048888;28;20566;-50
2023/04/09 01:12:38;;;;;;;11.53;10.13;;;;;;;11.54;63.85;94826.91;5048913;28;20665;-52
2023/04/09 01:15:09;;;;;;;11.87;10.53;;;;;;;11.51;63.99;94818.69;5048481;28;20187;-50
2023/04/09 01:17:44;;;;;;;15.83;10.13;;;;;;;11.51;63.62;94823.81;5049292;28;20187;-51
2023/04/09 01:20:14;;;;;;;13.90;11.80;;;;;;;11.52;63.85;94828.00;5048819;28;20601;-52
2023/04/09 01:22:56;;;;;;;13.03;10.27;;;;;;;11.49;64.05;94821.41;5048913;28;20198;-50
2023/04/09 01:25:45;;;;;;;11.40;10.17;;;;;;;11.52;63.97;94828.78;5050079;28;20203;-54
2023/04/09 01:28:22;;;;;;;13.83;10.73;;;;;;;11.53;63.98;94832.19;5052640;28;20206;-51
2023/04/09 01:30:52;;;;;;;11.40;10.17;;;;;;;11.45;64.03;94816.72;5052900;28;20519;-52
2023/04/09 01:33:20;;;;;;;11.87;10.40;;;;;;;11.50;63.84;94822.22;5052809;28;20195;-52
2023/04/09 01:35:49;;;;;;;11.37;10.20;;;;;;;11.53;64.13;94830.44;5052914;28;20187;-51
2023/04/09 01:38:19;;;;;;;12.23;10.63;;;;;;;11.47;63.93;94817.38;5052993;28;20270;-52
2023/04/09 01:40:46;;;;;;;11.70;10.10;;;;;;;11.53;64.12;94825.31;5052926;28;20276;-52
2023/04/09 01:43:15;;;;;;;11.33;10.10;;;;;;;11.49;64.14;94823.16;5052619;28;20187;-52
2023/04/09 01:45:44;;;;;;;11.67;9.90;;;;;;;11.53;64.01;94824.50;5052456;28;20306;-52
2023/04/09 01:48:12;;;;;;;12.10;9.67;;;;;;;11.50;63.83;94817.91;5052400;28;20589;-51
2023/04/09 01:50:39;;;;;;;12.90;10.43;;;;;;;11.50;64.08;94822.22;5052515;28;20222;-51
2023/04/09 01:53:07;;;;;;;11.00;9.80;;;;;;;11.53;64.05;94821.94;5052318;28;20187;-52
2023/04/09 01:55:34;;;;;;;12.13;9.30;;;;;;;11.51;64.02;94827.19;5052638;28;20565;-51
2023/04/09 01:58:01;;;;;;;13.03;10.00;;;;;;;11.52;63.69;94822.88;5052325;28;20286;-53
2023/04/09 02:00:35;;;;;;;11.00;9.80;;;;;;;11.48;64.17;94822.34;5052169;28;20551;-54
2023/04/09 02:03:08;;;;;;;11.30;10.10;;;;;;;11.49;64.06;94823.97;5052040;28;20636;-52
2023/04/09 02:05:38;;;;;;;10.33;9.23;;;;;;;11.49;63.75;94818.84;5051968;28;20202;-52
2023/04/09 02:08:08;;;;;;;10.40;9.23;;;;;;;11.48;64.07;94819.78;5051788;28;20978;-50
2023/04/09 02:10:38;;;;;;;12.10;9.73;;;;;;;11.47;64.15;94825.84;5052152;28;20742;-51
2023/04/09 02:13:06;;;;;;;10.00;9.03;;;;;;;11.45;64.11;94832.88;5051790;28;20219;-52
2023/04/09 02:15:35;;;;;;;10.73;9.30;;;;;;;11.43;64.07;94831.41;5052348;28;20187;-50
2023/04/09 02:18:03;;;;;;;12.43;9.10;;;;;;;11.41;64.14;94826.44;5051999;28;20214;-50
2023/04/09 02:20:30;;;;;;;9.20;8.13;;;;;;;11.39;64.33;94825.75;5052073;28;20277;-52
2023/04/09 02:22:56;;;;;;;10.13;8.53;;;;;;;11.36;64.16;94822.69;5052291;28;20252;-52
2023/04/09 02:25:24;;;;;;;9.37;8.37;;;;;;;11.37;64.24;94827.66;5051758;28;20237;-52
2023/04/09 02:27:51;;;;;;;9.10;8.20;;;;;;;11.35;64.25;94824.41;5051632;28;20594;-51
2023/04/09 02:30:18;;;;;;;8.83;7.93;;;;;;;11.33;64.19;94828.88;5051668;28;20197;-51
2023/04/09 02:32:45;;;;;;;8.23;7.43;;;;;;;11.31;64.24;94823.06;5051597;28;20187;-51
2023/04/09 02:35:14;;;;;;;8.53;7.73;;;;;;;11.30;64.34;94829.13;5051278;28;20191;-51
2023/04/09 02:37:40;;;;;;;9.40;8.40;;;;;;;11.27;64.32;94824.31;5050876;28;20199;-51
2023/04/09 02:40:08;;;;;;;8.03;7.23;;;;;;;11.24;64.55;94824.59;5051630;28;20241;-53
2023/04/09 02:42:35;;;;;;;8.63;7.80;;;;;;;11.22;64.29;94822.16;5051707;28;20202;-50
2023/04/09 02:45:02;;;;;;;8.13;7.37;;;;;;;11.21;64.43;94819.72;5051752;28;20187;-52
2023/04/09 02:47:29;;;;;;;8.83;6.80;;;;;;;11.19;64.52;94822.44;5051211;28;20302;-52
2023/04/09 02:49:55;;;;;;;8.93;7.73;;;;;;;11.17;64.45;94816.63;5050954;28;20207;-51
2023/04/09 02:52:24;;;;;;;7.47;6.73;;;;;;;11.10;64.49;94802.78;5051266;28;20194;-51
2023/04/09 02:54:52;;;;;;;8.53;7.63;;;;;;;11.14;64.42;94808.41;5051428;28;20614;-51
2023/04/09 02:57:19;;;;;;;7.90;7.10;;;;;;;11.08;64.41;94799.56;5051692;28;20633;-50
2023/04/09 02:59:46;;;;;;;8.23;7.33;;;;;;;11.08;64.32;94801.31;5051204;28;20670;-53
2023/04/09 03:02:13;;;;;;;7.53;6.80;;;;;;;11.10;64.55;94810.47;5050955;28;20194;-51
2023/04/09 03:04:40;;;;;;;8.57;7.50;;;;;;;11.08;64.50;94807.22;5051054;28;20601;-51
2023/04/09 03:07:07;;;;;;;7.90;7.10;;;;;;;11.06;64.69;94806.56;5050963;28;20222;-50
2023/04/09 03:09:35;;;;;;;7.90;7.20;;;;;;;10.98;64.63;94802.13;5050725;28;20226;-51
2023/04/09 03:12:02;;;;;;;7.77;7.03;;;;;;;11.02;64.78;94806.03;5050731;28;20198;-51
2023/04/09 03:14:29;;;;;;;8.17;7.43;;;;;;;10.93;64.56;94790.72;5050935;28;20194;-54
2023/04/09 03:16:55;;;;;;;8.17;7.37;;;;;;;10.98;64.76;94804.69;5050747;28;20190;-50
2023/04/09 03:19:22;;;;;;;8.60;7.70;;;;;;;10.96;64.79;94806.56;5050999;28;20190;-51
2023/04/09 03:21:50;;;;;;;8.97;7.30;;;;;;;10.93;64.76;94814.53;5051007;28;20183;-52
2023/04/09 03:24:17;;;;;;;8.00;7.20;;;;;;;10.90;64.72;94807.13;5050831;28;20191;-51
2023/04/09 03:26:45;;;;;;;8.53;7.73;;;;;;;10.88;64.79;94806.47;5050432;28;20318;-51
2023/04/09 03:29:12;;;;;;;8.63;7.47;;;;;;;10.87;64.83;94802.28;5050654;28;20202;-53
2023/04/09 03:31:39;;;;;;;7.90;6.97;;;;;;;10.87;64.92;94806.59;5050169;28;20187;-51
2023/04/09 03:34:05;;;;;;;7.50;6.80;;;;;;;10.84;64.73;94805.13;5050707;28;20225;-52
2023/04/09 03:36:32;;;;;;;8.23;7.33;;;;;;;10.83;64.81;94802.69;5050523;28;20264;-51
2023/04/09 03:39:00;;;;;;;7.97;7.17;;;;;;;10.80;64.90;94799.47;5050269;28;20662;-52
2023/04/09 03:41:27;;;;;;;7.73;7.00;;;;;;;10.80;64.84;94808.91;5050639;28;20290;-51
2023/04/09 03:43:56;;;;;;;8.60;7.73;;;;;;;10.61;64.96;94775.66;5050241;28;20277;-51
2023/04/09 03:46:23;;;;;;;8.67;7.40;;;;;;;10.73;65.04;94800.13;5050132;28;20709;-51
2023/04/09 03:48:50;;;;;;;8.23;7.30;;;;;;;10.72;64.87;94811.31;5049096;28;20187;-53
2023/04/09 03:51:17;;;;;;;9.17;7.30;;;;;;;10.72;65.04;94811.31;5050606;28;20187;-52
2023/04/09 03:53:44;;;;;;;7.57;6.83;;;;;;;10.72;65.15;94814.69;5050348;28;20202;-52
2023/04/09 03:56:11;;;;;;;7.87;6.77;;;;;;;10.71;64.93;94819.94;5050293;28;20187;-51
2023/04/09 03:58:38;;;;;;;8.00;7.20;;;;;;;10.71;65.12;94825.88;5050094;28;20195;-51
2023/04/09 04:01:06;;;;;;;8.20;7.40;;;;;;;10.68;65.24;94815.91;5049811;28;20198;-50
2023/04/09 04:03:33;;;;;;;8.70;7.80;;;;;;;10.69;65.22;94824.38;5049682;28;20743;-52
2023/04/09 04:06:02;;;;;;;8.77;7.37;;;;;;;10.69;65.29;94826.94;5050205;28;20190;-53
2023/04/09 04:08:29;;;;;;;8.00;7.20;;;;;;;10.66;65.49;94825.44;5049626;28;20318;-51
2023/04/09 04:10:55;;;;;;;9.60;8.37;;;;;;;10.70;65.15;94828.53;5049952;28;20206;-51
2023/04/09 04:13:22;;;;;;;8.30;7.50;;;;;;;10.71;65.33;94823.31;5049857;28;20763;-53
2023/04/09 04:15:49;;;;;;;9.27;8.27;;;;;;;10.72;65.17;94824.13;5049617;28;20189;-53
2023/04/09 04:18:17;;;;;;;9.03;7.80;;;;;;;10.74;65.14;94822.22;5050235;28;20195;-53
2023/04/09 04:20:44;;;;;;;9.00;8.10;;;;;;;10.76;65.04;94820.34;5049838;28;20203;-52
2023/04/09 04:23:11;;;;;;;8.33;7.57;;;;;;;10.79;65.07;94826.00;5049902;28;20183;-51
2023/04/09 04:25:41;;;;;;;9.17;8.17;;;;;;;10.79;65.04;94825.16;5049794;28;20206;-52
2023/04/09 04:28:07;;;;;;;9.47;8.43;;;;;;;10.85;64.81;94818.72;5049860;28;20211;-55
2023/04/09 04:30:34;;;;;;;9.83;8.50;;;;;;;10.90;65.04;94819.13;5049562;28;20651;-51
2023/04/09 04:33:01;;;;;;;10.77;8.57;;;;;;;10.94;64.80;94826.38;5049562;28;20191;-51
2023/04/09 04:35:29;;;;;;;10.53;8.67;;;;;;;10.99;64.45;94826.78;5049352;28;20681;-52
2023/04/09 04:37:56;;;;;;;8.87;7.97;;;;;;;11.05;64.89;94825.41;5049514;28;20187;-51
2023/04/09 04:40:23;;;;;;;9.90;8.63;;;;;;;11.14;64.59;94826.34;5049134;28;20195;-50
2023/04/09 04:42:50;;;;;;;8.30;7.40;;;;;;;11.18;64.29;94827.69;5049121;28;20631;-52
2023/04/09 04:45:17;;;;;;;10.50;8.60;;;;;;;11.28;64.36;94831.03;5049510;28;20190;-52
2023/04/09 04:47:44;;;;;;;9.63;8.63;;;;;;;11.38;64.21;94831.00;5049660;28;20219;-51
2023/04/09 04:50:11;;;;;;;8.90;8.10;;;;;;;11.48;64.07;94834.34;5049516;28;20187;-52
2023/04/09 04:52:39;;;;;;;11.23;8.83;;;;;;;11.59;63.87;94831.63;5049068;28;20202;-51
2023/04/09 04:55:06;;;;;;;9.40;8.50;;;;;;;11.72;63.58;94829.53;5049355;28;20187;-51
2023/04/09 04:57:33;;;;;;;10.33;8.70;;;;;;;11.80;63.54;94813.47;5049072;28;20555;-53
2023/04/09 05:00:00;;;;;;;10.03;8.90;;;;;;;12.04;63.25;94826.56;5048962;28;20198;-52
2023/04/09 05:02:27;;;;;;;9.93;8.83;;;;;;;12.21;62.56;94826.75;5048915;28;20186;-55
2023/04/09 05:04:53;;;;;;;9.80;8.87;;;;;;;12.41;62.63;94838.53;5048894;28;20202;-51
2023/04/09 05:07:20;;;;;;;11.13;9.13;;;;;;;12.60;62.22;94829.06;5048877;28;20230;-52
2023/04/09 05:09:48;;;;;;;11.33;8.27;;;;;;;12.80;61.79;94830.53;5049204;28;20698;-50
2023/04/09 05:12:16;;;;;;;12.87;9.40;;;;;;;12.98;61.37;94828.75;5048988;28;20179;-52
2023/04/09 05:14:43;;;;;;;10.43;9.33;;;;;;;13.24;60.91;94830.56;5049341;28;20336;-51
2023/04/09 05:17:10;;;;;;;10.00;9.00;;;;;;;13.45;60.33;94828.47;5049120;28;20202;-53
2023/04/09 05:19:37;;;;;;;10.10;9.10;;;;;;;13.63;60.25;94820.69;5049297;28;20199;-54
2023/04/09 05:22:04;;;;;;;11.47;9.37;;;;;;;13.87;59.71;94827.72;5049062;28;20187;-52
2023/04/09 05:24:30;;;;;;;11.43;10.00;;;;;;;14.09;59.44;94836.63;5049372;28;20187;-53
2023/04/09 05:27:00;;;;;;;11.37;10.27;;;;;;;14.24;59.46;94831.69;5049039;28;20223;-53
2023/04/09 05:29:27;;;;;;;11.20;9.57;;;;;;;14.36;59.08;94838.16;5049160;28;20190;-53
2023/04/09 05:31:53;;;;;;;11.80;10.30;;;;;;;14.47;58.89;94826.78;5049143;28;20206;-51
2023/04/09 05:34:20;;;;;;;11.43;9.87;;;;;;;14.57;58.68;94826.66;5048741;28;20667;-52
2023/04/09 05:36:47;;;;;;;14.43;9.60;;;;;;;14.65;58.63;94830.03;5048928;28;20615;-53
2023/04/09 05:39:14;;;;;;;11.67;10.47;;;;;;;14.73;58.43;94824.91;5048966;28;20188;-51
2023/04/09 05:41:43;;;;;;;12.07;9.83;;;;;;;14.79;58.20;94829.41;5048842;28;20201;-54
2023/04/09 05:44:11;;;;;;;11.13;9.57;;;;;;;14.83;58.12;94826.50;5049046;28;20335;-54
2023/04/09 05:46:38;;;;;;;15.20;11.03;;;;;;;14.98;57.95;94842.91;5049327;28;20199;-53
2023/04/09 05:49:05;;;;;;;12.17;10.80;;;;;;;15.02;57.60;94834.72;5048956;28;20191;-54
2023/04/09 05:51:31;;;;;;;14.00;9.63;;;;;;;15.18;57.42;94833.09;5049320;28;20198;-55
2023/04/09 05:53:59;;;;;;;11.67;10.43;;;;;;;15.44;57.17;94835.50;5048822;28;20191;-54
2023/04/09 05:56:26;;;;;;;12.93;10.63;;;;;;;15.73;56.84;94832.41;5048841;28;20226;-53
2023/04/09 05:58:53;;;;;;;11.27;9.87;;;;;;;16.05;56.43;94829.69;5049006;28;20210;-55
2023/04/09 06:01:21;;;;;;;10.40;9.40;;;;;;;16.45;56.10;94838.22;5049062;28;20260;-54
2023/04/09 06:03:48;;;;;;;10.63;9.40;;;;;;;16.85;55.73;94833.00;5048722;28;20198;-54
2023/04/09 06:06:15;;;;;;;10.07;9.07;;;;;;;17.26;55.43;94836.03;5048924;28;20183;-52
2023/04/09 06:08:43;;;;;;;10.63;9.50;;;;;;;17.68;54.97;94839.84;5048515;28;20701;-53
2023/04/09 06:11:10;;;;;;;10.77;9.67;;;;;;;18.05;54.42;94826.06;5048531;28;20674;-53
2023/04/09 06:13:37;;;;;;;10.07;9.03;;;;;;;18.43;54.17;94837.03;5052026;28;20179;-55
2023/04/09 06:16:05;;;;;;;10.47;9.33;;;;;;;18.77;53.65;94839.03;5052554;28;20245;-52
2023/04/09 06:18:33;;;;;;;9.33;8.43;;;;;;;19.16;52.88;94827.41;5052600;28;20183;-54
2023/04/09 06:21:04;;;;;;;10.77;8.73;;;;;;;19.73;52.52;94847.22;5051852;28;20202;-54
2023/04/09 06:23:31;;;;;;;9.57;8.53;;;;;;;20.21;51.88;94844.69;5052348;28;20274;-54
2023/04/09 06:25:57;;;;;;;10.37;9.33;;;;;;;20.65;51.26;94843.47;5051734;28;20278;-53
2023/04/09 06:28:24;;;;;;;8.93;8.03;;;;;;;21.03;50.67;94845.53;5052103;28;20222;-52
2023/04/09 06:30:52;;;;;;;9.33;8.30;;;;;;;21.41;50.00;94842.38;5051876;28;20191;-52
2023/04/09 06:33:19;;;;;;;11.47;8.60;;;;;;;21.96;49.35;94845.50;5051926;28;20638;-54
2023/04/09 06:35:47;;;;;;;9.70;8.07;;;;;;;22.41;48.96;94820.34;5051790;28;20191;-54
2023/04/09 06:38:14;;;;;;;9.18;8.25;;;;;;;22.95;48.13;94810.41;5051905;28;20218;-53
2023/04/09 06:40:41;;;;;;;8.90;8.00;;;;;;;23.47;47.17;94813.63;5052146;28;20183;-55
2023/04/09 06:43:08;;;;;;;10.52;7.78;;;;;;;24.26;46.61;94859.84;5051813;28;20219;-54
2023/04/09 06:45:36;;;;;;;10.00;7.85;;;;;;;24.78;45.96;94862.06;5051628;28;20237;-53
2023/04/09 06:48:03;;;;;;;9.18;7.30;;;;;;;25.21;45.47;94856.66;5051248;28;20226;-54
2023/04/09 06:50:30;;;;;;;10.32;8.52;;;;;;;25.44;44.92;94826.31;5051080;28;20198;-54
2023/04/09 06:52:58;;;;;;;8.85;7.78;;;;;;;25.90;44.42;94856.19;5051378;28;20277;-56
2023/04/09 06:55:26;;;;;;;9.00;8.10;;;;;;;26.09;43.72;94864.72;5051273;28;20191;-52
2023/04/09 06:57:53;;;;;;;9.40;8.05;;;;;;;26.22;43.53;94862.66;5051551;28;20214;-54
2023/04/09 07:00:21;;;;;;;9.93;8.90;;;;;;;26.21;42.98;94826.19;5051469;28;20180;-54
2023/04/09 07:02:48;;;;;;;8.18;7.30;;;;;;;26.55;42.51;94869.09;5051025;28;20214;-54
2023/04/09 07:05:15;;;;;;;9.25;7.85;;;;;;;26.75;42.42;94847.69;5051357;28;20194;-53
2023/04/09 07:07:42;;;;;;;9.15;8.25;;;;;;;27.08;41.59;94859.31;5050609;28;20222;-54
2023/04/09 07:10:11;;;;;;;8.98;8.05;;;;;;;27.40;41.45;94863.03;5051293;28;20311;-54
2023/04/09 07:12:37;;;;;;;8.40;7.60;;;;;;;27.67;41.45;94872.88;5050747;28;20335;-54
2023/04/09 07:15:06;;;;;;;9.23;7.60;;;;;;;27.86;40.55;94862.97;5051281;28;20257;-53
2023/04/09 07:17:33;;;;;;;8.63;7.78;;;;;;;27.82;40.52;94861.84;5050626;28;20223;-55
2023/04/09 07:20:00;;;;;;;7.65;6.95;;;;;;;27.85;40.57;94863.97;5051993;28;20219;-55
2023/04/09 07:22:29;;;;;;;8.80;7.53;;;;;;;27.71;41.06;94864.28;5051652;28;20673;-52
2023/04/09 07:24:56;;;;;;;8.35;7.55;;;;;;;27.52;40.96;94871.63;5050942;28;20249;-54
2023/04/09 07:27:26;;;;;;;8.13;7.28;;;;;;;27.40;41.28;94863.03;5050794;28;20222;-54
2023/04/09 07:29:54;;;;;;;8.63;7.72;;;;;;;27.32;40.61;94831.88;5050364;28;20635;-53
2023/04/09 07:32:21;;;;;;;9.90;7.82;;;;;;;27.89;39.68;94872.97;5050660;28;20198;-54
2023/04/09 07:34:48;;;;;;;8.68;7.88;;;;;;;28.25;39.17;94869.81;5050239;28;20299;-54
2023/04/09 07:37:15;;;;;;;7.55;6.78;;;;;;;28.59;39.10;94874.19;5050708;28;20183;-54
2023/04/09 07:39:42;;;;;;;7.28;6.57;;;;;;;28.81;38.84;94861.00;5050296;28;20630;-54
2023/04/09 07:42:09;;;;;;;8.50;7.70;;;;;;;28.97;38.76;94868.03;5050714;28;20278;-55
2023/04/09 07:44:37;;;;;;;7.47;6.65;;;;;;;29.14;37.97;94860.81;5050169;28;20824;-54
2023/04/09 07:47:05;;;;;;;7.57;6.70;;;;;;;29.33;37.86;94873.66;5050361;28;20581;-54
2023/04/09 07:49:32;;;;;;;7.28;6.57;;;;;;;29.57;37.46;94869.66;5050052;28;20226;-54
2023/04/09 07:52:00;;;;;;;6.75;6.13;;;;;;;29.74;37.15;94859.75;5050450;28;20187;-53
2023/04/09 07:54:27;;;;;;;6.93;6.10;;;;;;;30.07;37.23;94875.53;5050330;28;20202;-55
2023/04/09 07:56:55;;;;;;;7.32;6.32;;;;;;;30.29;36.98;94888.59;5050137;28;20613;-53
2023/04/09 07:59:22;;;;;;;8.73;6.72;;;;;;;30.54;36.29;94877.38;5049935;28;20604;-54
2023/04/09 08:01:50;;;;;;;7.60;6.90;;;;;;;30.75;36.27;94870.34;5050005;28;20659;-54
2023/04/09 08:04:17;;;;;;;7.53;6.78;;;;;;;30.80;35.99;94857.94;5049787;28;20195;-54
2023/04/09 08:06:48;;;;;;;6.40;5.88;;;;;;;31.05;35.93;94877.56;5049456;28;20260;-54
2023/04/09 08:09:15;;;;;;;6.60;6.00;;;;;;;31.18;35.74;94882.34;5049880;28;20697;-54
2023/04/09 08:11:44;;;;;;;7.63;6.93;;;;;;;31.29;35.62;94891.09;5049692;28;20616;-55
2023/04/09 08:14:11;;;;;;;7.07;6.38;;;;;;;31.39;35.51;94880.50;5049816;28;20195;-55
2023/04/09 08:16:40;;;;;;;7.15;6.55;;;;;;;31.45;35.21;94890.03;5049422;28;20191;-54
2023/04/09 08:19:09;;;;;;;7.20;6.50;;;;;;;31.42;35.39;94872.06;5049876;28;20572;-53
2023/04/09 08:21:37;;;;;;;7.15;6.55;;;;;;;31.50;35.41;94878.69;5049774;28;20195;-54
2023/04/09 08:24:05;;;;;;;6.90;6.28;;;;;;;31.51;35.04;94877.63;5050022;28;20187;-55
2023/04/09 08:26:32;;;;;;;7.13;6.43;;;;;;;31.50;35.11;94886.59;5049607;28;20194;-54
2023/04/09 08:28:59;;;;;;;7.57;6.68;;;;;;;31.41;35.20;94881.84;5049860;28;20452;-54
2023/04/09 08:31:26;;;;;;;6.55;5.95;;;;;;;31.29;35.10;94872.59;5049520;28;20210;-53
2023/04/09 08:33:52;;;;;;;8.32;6.25;;;;;;;31.19;35.47;94876.78;5049756;28;20183;-54
2023/04/09 08:36:21;;;;;;;7.55;6.85;;;;;;;31.07;35.27;94880.72;5048573;28;20195;-54
2023/04/09 08:38:48;;;;;;;6.63;5.97;;;;;;;30.87;34.80;94890.19;5049398;28;20202;-54
2023/04/09 08:41:19;;;;;;;7.20;6.50;;;;;;;30.75;34.94;94891.47;5049432;28;20221;-52
2023/04/09 08:43:47;;;;;;;7.43;6.72;;;;;;;30.57;35.17;94882.13;5049746;28;20210;-54
2023/04/09 08:46:15;;;;;;;7.60;6.90;;;;;;;30.41;34.46;94876.78;5049070;28;20301;-54
2023/04/09 08:48:43;;;;;;;7.10;6.50;;;;;;;30.25;34.83;94867.19;5049192;28;20215;-55
2023/04/09 08:51:13;;;;;;;7.15;6.45;;;;;;;30.10;34.41;94875.81;5049283;28;20222;-55
2023/04/09 08:53:44;;;;;;;7.82;7.03;;;;;;;29.95;34.28;94873.88;5049396;28;20256;-54
2023/04/09 08:56:12;;;;;;;7.93;7.13;;;;;;;29.70;33.95;94863.94;5049342;28;20294;-54
2023/04/09 08:58:43;;;;;;;7.25;6.43;;;;;;;29.60;33.90;94866.50;5049190;28;20569;-53
2023/04/09 09:01:20;;;;;;;7.93;6.80;;;;;;;29.42;33.84;94888.75;5049016;28;20229;-56
2023/04/09 09:03:56;;;;;;;8.02;7.25;;;;;;;29.20;34.21;94874.84;5049114;28;20256;-56
2023/04/09 09:06:23;;;;;;;7.82;7.13;;;;;;;28.92;34.24;94860.84;5048834;28;20194;-54
2023/04/09 09:09:02;;;;;;;7.20;6.50;;;;;;;28.70;34.05;94876.69;5049035;28;20227;-54
2023/04/09 09:11:30;;;;;;;9.07;7.13;;;;;;;28.46;34.34;94863.00;5048796;28;20712;-54
2023/04/09 09:14:01;;;;;;;7.72;6.97;;;;;;;28.26;34.21;94871.38;5049012;28;20279;-55
2023/04/09 09:16:28;;;;;;;8.10;7.28;;;;;;;28.09;33.75;94865.38;5048805;28;20202;-55
2023/04/09 09:18:56;;;;;;;8.93;8.02;;;;;;;27.90;33.92;94858.81;5049257;28;20209;-52
2023/04/09 09:21:23;;;;;;;7.65;6.95;;;;;;;27.69;33.81;94857.69;5049181;28;20237;-53
2023/04/09 09:23:50;;;;;;;7.88;7.18;;;;;;;27.51;33.66;94858.75;5049010;28;20183;-53
2023/04/09 09:26:20;;;;;;;8.18;7.38;;;;;;;27.33;34.01;94854.53;5049183;28;20275;-53
2023/04/09 09:28:49;;;;;;;8.18;7.38;;;;;;;27.07;33.99;94853.25;5049093;28;20652;-55
2023/04/09 09:31:17;;;;;;;7.60;6.90;;;;;;;26.88;34.19;94855.28;5049277;28;20225;-54
2023/04/09 09:33:45;;;;;;;8.68;7.80;;;;;;;26.62;34.16;94838.28;5048817;28;20202;-56
2023/04/09 09:36:12;;;;;;;8.23;7.43;;;;;;;26.51;34.07;94852.22;5049329;28;20570;-55
2023/04/09 09:38:53;;;;;;;7.60;6.85;;;;;;;26.26;33.78;94847.25;5048887;28;20183;-52
2023/04/09 09:41:21;;;;;;;8.27;7.40;;;;;;;26.03;34.32;94855.94;5049342;28;20183;-53
2023/04/09 09:43:48;;;;;;;8.25;7.43;;;;;;;25.79;34.14;94834.22;5049835;28;20274;-55
2023/04/09 09:46:16;;;;;;;7.00;6.30;;;;;;;25.55;34.57;94833.38;5050038;28;20632;-55
2023/04/09 09:48:45;;;;;;;7.75;7.05;;;;;;;25.35;34.57;94840.78;5052511;28;20252;-54
2023/04/09 09:51:13;;;;;;;8.38;7.57;;;;;;;24.90;34.50;94801.94;5052756;28;20226;-55
2023/04/09 09:53:44;;;;;;;8.32;7.28;;;;;;;24.95;34.78;94842.13;5052361;28;20194;-55
2023/04/09 09:56:15;;;;;;;7.93;7.13;;;;;;;24.76;35.07;94841.38;5052830;28;20187;-54
2023/04/09 09:58:48;;;;;;;7.18;6.47;;;;;;;24.56;35.08;94840.03;5052304;28;20276;-53
2023/04/09 10:01:18;;;;;;;7.60;6.85;;;;;;;24.36;35.00;94840.28;5052672;28;20190;-55
2023/04/09 10:03:46;;;;;;;7.97;7.10;;;;;;;24.19;34.81;94832.22;5052551;28;20190;-55
2023/04/09 10:06:14;;;;;;;7.35;6.65;;;;;;;24.01;35.11;94831.22;5052071;28;20193;-54
2023/04/09 10:08:42;;;;;;;7.50;6.65;;;;;;;23.84;35.37;94827.56;5051923;28;20702;-53
2023/04/09 10:11:11;;;;;;;7.65;6.88;;;;;;;23.69;35.32;94827.91;5052127;28;20271;-54
2023/04/09 10:13:42;;;;;;;7.25;6.55;;;;;;;23.56;35.39;94829.81;5052101;28;20214;-56
2023/04/09 10:16:11;;;;;;;7.35;6.65;;;;;;;23.48;35.22;94839.50;5052184;28;20740;-54
2023/04/09 10:18:41;;;;;;;7.55;6.35;;;;;;;23.39;35.35;94825.13;5051924;28;20187;-53
2023/04/09 10:21:14;;;;;;;7.53;6.82;;;;;;;23.33;35.31;94818.16;5052112;28;20641;-52
2023/04/09 10:23:43;;;;;;;7.38;6.65;;;;;;;23.24;35.54;94814.22;5052026;28;20195;-54
2023/04/09 10:26:11;;;;;;;9.32;6.38;;;;;;;23.11;35.50;94816.94;5052088;28;20641;-53
2023/04/09 10:28:38;;;;;;;7.45;6.72;;;;;;;22.96;35.44;94830.25;5051427;28;20225;-55
2023/04/09 10:31:06;;;;;;;6.95;6.28;;;;;;;22.81;35.90;94827.13;5051814;28;20249;-53
2023/04/09 10:33:36;;;;;;;6.70;6.07;;;;;;;22.64;35.68;94817.19;5051579;28;20183;-53
2023/04/09 10:36:09;;;;;;;8.35;7.22;;;;;;;22.52;35.92;94830.09;5051816;28;20191;-54
2023/04/09 10:38:37;;;;;;;6.72;6.10;;;;;;;22.50;35.98;94815.69;5051563;28;20195;-53
2023/04/09 10:41:11;;;;;;;7.15;6.45;;;;;;;22.45;36.00;94797.22;5051733;28;20194;-53
2023/04/09 10:43:38;;;;;;;7.10;6.47;;;;;;;22.53;36.12;94803.00;5051275;28;20279;-53
2023/04/09 10:46:05;;;;;;;6.60;6.03;;;;;;;22.57;35.98;94803.38;5051530;28;20190;-52
2023/04/09 10:48:36;;;;;;;6.93;6.10;;;;;;;22.64;35.90;94816.41;5051194;28;20222;-53
2023/04/09 10:51:05;;;;;;;6.80;6.15;;;;;;;22.68;35.84;94807.16;5051576;28;20202;-55
2023/04/09 10:53:33;;;;;;;6.78;6.18;;;;;;;22.65;35.73;94790.13;5051082;28;20766;-53
2023/04/09 10:56:00;;;;;;;6.75;6.15;;;;;;;22.69;35.79;94791.28;5051363;28;20717;-52
2023/04/09 10:58:27;;;;;;;7.10;6.40;;;;;;;22.65;35.76;94768.47;5050642;28;20191;-53
2023/04/09 11:00:55;;;;;;;7.03;6.32;;;;;;;22.86;35.77;94796.00;5051248;28;20195;-51
2023/04/09 11:03:27;;;;;;;9.18;6.72;;;;;;;22.92;35.71;94790.75;5051272;28;20193;-53
2023/04/09 11:06:00;;;;;;;6.50;5.90;;;;;;;22.93;35.49;94786.38;5051130;28;20658;-53
2023/04/09 11:08:29;;;;;;;6.80;6.20;;;;;;;22.76;35.92;94755.56;5050520;28;20238;-54
2023/04/09 11:10:57;;;;;;;7.65;5.70;;;;;;;22.97;35.64;94774.47;5051554;28;20191;-54
2023/04/09 11:13:24;;;;;;;6.60;6.00;;;;;;;23.00;35.63;94776.66;5051018;28;20241;-60
2023/04/09 11:15:51;;;;;;;6.55;5.95;;;;;;;23.02;35.55;94793.72;5050881;28;20184;-54
2023/04/09 11:18:22;;;;;;;6.90;6.07;;;;;;;23.01;35.82;94773.88;5051367;28;20218;-61
2023/04/09 11:20:49;;;;;;;6.20;5.60;;;;;;;23.02;35.55;94778.06;5050672;28;20202;-55
2023/04/09 11:23:18;;;;;;;6.65;6.05;;;;;;;23.02;35.58;94780.66;5051547;28;20191;-52
2023/04/09 11:25:48;;;;;;;6.72;6.05;;;;;;;22.96;35.72;94780.72;5051184;28;20602;-53
2023/04/09 11:28:15;;;;;;;6.25;5.65;;;;;;;22.88;35.75;94788.75;5050942;28;20187;-52
2023/04/09 11:30:42;;;;;;;6.20;5.70;;;;;;;22.75;35.99;94780.03;5051154;28;20237;-55
2023/04/09 11:33:09;;;;;;;5.75;5.20;;;;;;;22.63;36.04;94784.31;5050966;28;20269;-53